Time;durP1;ratioP1;P1;durP2;ratioP2;P2;SDS_P1;SDS_P2;PMS_P1;PMS_P2;Temp;Humidity;BMP_temperature;BMP_pressure;BME280_temperature;BME280_humidity;BME280_pressure;Samples;Min_cycle;Max_cycle;Signal;HPM_P1;HPM_P2
2022/03/24 00:01:50;;;;;;;30.37;20.10;;;;;;;;;;5008866;28;20865;-35
2022/03/24 00:04:16;;;;;;;31.87;19.80;;;;;;;;;;5003361;28;20460;-35
2022/03/24 00:06:42;;;;;;;30.63;19.33;;;;;;;;;;5002027;28;20414;-35
2022/03/24 00:09:08;;;;;;;31.47;19.57;;;;;;;;;;5005019;28;20477;-35
2022/03/24 00:11:34;;;;;;;29.37;19.20;;;;;;;;;;5001810;28;20906;-35
2022/03/24 00:14:00;;;;;;;31.37;19.33;;;;;;;;;;5000650;28;20461;-35
2022/03/24 00:16:26;;;;;;;31.63;19.53;;;;;;;;;;5005851;28;21037;-35
2022/03/24 00:18:53;;;;;;;29.27;19.10;;;;;;;;;;5003183;28;20438;-35
2022/03/24 00:21:19;;;;;;;30.60;19.53;;;;;;;;;;4999252;28;20530;-35
2022/03/24 00:23:45;;;;;;;28.10;18.30;;;;;;;;;;5000942;28;20826;-35
2022/03/24 00:26:12;;;;;;;28.97;18.97;;;;;;;;;;5005143;28;20469;-35
2022/03/24 00:28:38;;;;;;;29.40;18.93;;;;;;;;;;5000201;28;20515;-36
2022/03/24 00:31:05;;;;;;;28.70;17.53;;;;;;;;;;5002114;28;20438;-35
2022/03/24 00:33:32;;;;;;;27.90;17.50;;;;;;;;;;4999269;28;20443;-35
2022/03/24 00:35:58;;;;;;;27.50;18.87;;;;;;;;;;5002405;28;20438;-35
2022/03/24 00:38:24;;;;;;;24.80;17.67;;;;;;;;;;5000847;28;21136;-35
2022/03/24 00:40:51;;;;;;;30.17;18.30;;;;;;;;;;5002591;28;20773;-35
2022/03/24 00:43:17;;;;;;;29.53;18.93;;;;;;;;;;5004947;28;20837;-35
2022/03/24 00:45:43;;;;;;;27.67;18.40;;;;;;;;;;5004696;28;20537;-35
2022/03/24 00:48:10;;;;;;;28.77;18.33;;;;;;;;;;5006025;28;20613;-37
2022/03/24 00:50:36;;;;;;;30.30;18.80;;;;;;;;;;5004686;28;21223;-35
2022/03/24 00:53:03;;;;;;;30.10;17.83;;;;;;;;;;5005250;28;20849;-35
2022/03/24 00:55:30;;;;;;;27.67;18.50;;;;;;;;;;5008814;28;20792;-35
2022/03/24 00:57:56;;;;;;;31.90;18.23;;;;;;;;;;5009124;28;20864;-35
2022/03/24 01:00:25;;;;;;;28.03;17.63;;;;;;;;;;5007449;28;20941;-35
2022/03/24 01:02:53;;;;;;;28.70;18.13;;;;;;;;;;5004598;28;20506;-35
2022/03/24 01:05:19;;;;;;;29.60;18.60;;;;;;;;;;5010888;28;20426;-35
2022/03/24 01:07:47;;;;;;;26.57;17.97;;;;;;;;;;5005012;28;21250;-35
2022/03/24 01:10:14;;;;;;;24.10;16.87;;;;;;;;;;5009758;28;20429;-35
2022/03/24 01:12:40;;;;;;;27.47;17.20;;;;;;;;;;5009750;28;20994;-35
2022/03/24 01:15:07;;;;;;;27.83;19.07;;;;;;;;;;5004637;28;21322;-35
2022/03/24 01:17:34;;;;;;;27.20;17.33;;;;;;;;;;5005696;28;20430;-35
2022/03/24 01:20:00;;;;;;;29.33;18.23;;;;;;;;;;5009672;28;20413;-35
2022/03/24 01:22:27;;;;;;;26.63;18.07;;;;;;;;;;5004983;28;20588;-35
2022/03/24 01:24:53;;;;;;;27.07;18.13;;;;;;;;;;5007937;28;20430;-35
2022/03/24 01:27:19;;;;;;;27.20;17.43;;;;;;;;;;5006273;28;20951;-35
2022/03/24 01:29:45;;;;;;;28.90;17.93;;;;;;;;;;5005541;28;20635;-35
2022/03/24 01:32:12;;;;;;;25.60;17.37;;;;;;;;;;5010199;28;20947;-35
2022/03/24 01:34:39;;;;;;;28.60;18.50;;;;;;;;;;5004613;28;20710;-35
2022/03/24 01:37:08;;;;;;;28.37;18.13;;;;;;;;;;5002442;28;20445;-35
2022/03/24 01:39:34;;;;;;;27.23;17.83;;;;;;;;;;5006407;28;20480;-35
2022/03/24 01:42:00;;;;;;;28.57;17.50;;;;;;;;;;5005280;28;20458;-35
2022/03/24 01:44:27;;;;;;;29.20;17.67;;;;;;;;;;5004056;28;20526;-35
2022/03/24 01:47:00;;;;;;;28.10;18.13;;;;;;;;;;5008094;28;20423;-35
2022/03/24 01:49:28;;;;;;;27.07;17.23;;;;;;;;;;5004958;28;20425;-35
2022/03/24 01:51:54;;;;;;;26.77;17.40;;;;;;;;;;5003996;28;20418;-35
2022/03/24 01:54:22;;;;;;;25.43;17.50;;;;;;;;;;5002343;28;20516;-35
2022/03/24 01:56:48;;;;;;;28.03;17.37;;;;;;;;;;5005618;28;20534;-35
2022/03/24 01:59:16;;;;;;;25.53;16.87;;;;;;;;;;5005092;28;20772;-35
2022/03/24 02:01:43;;;;;;;30.83;17.40;;;;;;;;;;5003850;28;20450;-35
2022/03/24 02:04:10;;;;;;;27.37;17.50;;;;;;;;;;5006889;28;20702;-35
2022/03/24 02:06:36;;;;;;;26.37;16.83;;;;;;;;;;5006638;28;21278;-35
2022/03/24 02:09:03;;;;;;;26.17;16.30;;;;;;;;;;5003358;28;20831;-35
2022/03/24 02:11:29;;;;;;;25.30;17.23;;;;;;;;;;5005370;28;20522;-35
2022/03/24 02:13:56;;;;;;;28.70;17.43;;;;;;;;;;5002027;28;20726;-35
2022/03/24 02:16:26;;;;;;;28.60;17.10;;;;;;;;;;5005233;28;20422;-35
2022/03/24 02:18:52;;;;;;;27.77;17.17;;;;;;;;;;4986313;28;20422;-35
2022/03/24 02:21:18;;;;;;;31.73;18.53;;;;;;;;;;5004005;28;20454;-35
2022/03/24 02:23:45;;;;;;;28.53;18.20;;;;;;;;;;4988422;28;20423;-35
2022/03/24 02:26:12;;;;;;;32.27;18.80;;;;;;;;;;4986718;28;20434;-35
2022/03/24 02:28:38;;;;;;;32.47;18.33;;;;;;;;;;5004379;28;20629;-35
2022/03/24 02:31:04;;;;;;;30.70;18.27;;;;;;;;;;5004899;28;20445;-35
2022/03/24 02:33:31;;;;;;;32.23;18.90;;;;;;;;;;5006868;28;20945;-35
2022/03/24 02:35:57;;;;;;;30.83;19.43;;;;;;;;;;5003871;28;20942;-35
2022/03/24 02:38:23;;;;;;;33.43;19.23;;;;;;;;;;5002244;28;20432;-35
2022/03/24 02:40:51;;;;;;;31.27;18.70;;;;;;;;;;5007458;28;20568;-35
2022/03/24 02:43:20;;;;;;;30.70;19.73;;;;;;;;;;5006182;28;21132;-35
2022/03/24 02:45:49;;;;;;;33.60;18.27;;;;;;;;;;5007334;28;20445;-35
2022/03/24 02:48:15;;;;;;;36.53;20.70;;;;;;;;;;5002400;28;20795;-35
2022/03/24 02:50:41;;;;;;;33.37;21.27;;;;;;;;;;5002439;28;21040;-35
2022/03/24 02:53:09;;;;;;;38.47;20.83;;;;;;;;;;5004679;28;20430;-35
2022/03/24 02:55:35;;;;;;;34.57;20.73;;;;;;;;;;4991537;28;20453;-35
2022/03/24 02:58:02;;;;;;;32.37;21.13;;;;;;;;;;5005054;28;20422;-35
2022/03/24 03:00:28;;;;;;;32.93;21.53;;;;;;;;;;5002100;28;20438;-35
2022/03/24 03:02:54;;;;;;;37.40;22.50;;;;;;;;;;5002420;28;21091;-35
2022/03/24 03:05:24;;;;;;;39.37;22.20;;;;;;;;;;5009839;28;20790;-35
2022/03/24 03:07:51;;;;;;;35.63;21.77;;;;;;;;;;5000308;28;20436;-35
2022/03/24 03:10:18;;;;;;;34.17;21.43;;;;;;;;;;5005268;28;20717;-35
2022/03/24 03:12:46;;;;;;;34.83;21.47;;;;;;;;;;5006864;28;20426;-35
2022/03/24 03:15:12;;;;;;;34.57;21.13;;;;;;;;;;5003880;28;21020;-35
2022/03/24 03:17:39;;;;;;;38.40;23.50;;;;;;;;;;5000599;28;20670;-35
2022/03/24 03:20:06;;;;;;;36.20;22.73;;;;;;;;;;5003006;28;20848;-35
2022/03/24 03:22:32;;;;;;;40.40;22.23;;;;;;;;;;5009025;28;20450;-35
2022/03/24 03:24:59;;;;;;;36.93;23.37;;;;;;;;;;5004070;28;20504;-35
2022/03/24 03:27:27;;;;;;;35.63;23.23;;;;;;;;;;5002939;28;21279;-35
2022/03/24 03:29:54;;;;;;;36.87;22.77;;;;;;;;;;5002472;28;20427;-35
2022/03/24 03:32:21;;;;;;;38.40;22.87;;;;;;;;;;5003933;28;20981;-35
2022/03/24 03:34:48;;;;;;;37.43;23.27;;;;;;;;;;5006865;28;20736;-35
2022/03/24 03:37:15;;;;;;;37.57;24.00;;;;;;;;;;4997661;28;20447;-35
2022/03/24 03:39:41;;;;;;;41.67;24.67;;;;;;;;;;5006568;28;20869;-35
2022/03/24 03:42:08;;;;;;;40.40;24.40;;;;;;;;;;5004197;28;20457;-35
2022/03/24 03:44:34;;;;;;;39.30;23.53;;;;;;;;;;5000397;28;20438;-35
2022/03/24 03:47:01;;;;;;;40.93;24.03;;;;;;;;;;5000502;28;20502;-35
2022/03/24 03:49:27;;;;;;;41.03;25.23;;;;;;;;;;5005963;28;20458;-35
2022/03/24 03:51:54;;;;;;;44.57;25.27;;;;;;;;;;5003256;28;20528;-35
2022/03/24 03:54:21;;;;;;;40.67;24.33;;;;;;;;;;5003007;28;20467;-35
2022/03/24 03:56:47;;;;;;;42.10;24.33;;;;;;;;;;5002189;28;20986;-36
2022/03/24 03:59:14;;;;;;;43.57;24.60;;;;;;;;;;5005889;28;21369;-35
2022/03/24 04:01:40;;;;;;;40.03;23.93;;;;;;;;;;5002942;28;20461;-35
2022/03/24 04:04:12;;;;;;;41.37;24.50;;;;;;;;;;5001221;28;20669;-35
2022/03/24 04:06:38;;;;;;;43.30;24.57;;;;;;;;;;5003377;28;20745;-35
2022/03/24 04:09:04;;;;;;;39.03;24.20;;;;;;;;;;4999598;28;20449;-35
2022/03/24 04:11:30;;;;;;;44.77;25.73;;;;;;;;;;5005911;28;20434;-35
2022/03/24 04:13:56;;;;;;;41.67;24.50;;;;;;;;;;4998780;28;20847;-35
2022/03/24 04:16:23;;;;;;;39.13;22.43;;;;;;;;;;5000384;28;20480;-35
2022/03/24 04:18:49;;;;;;;35.63;22.57;;;;;;;;;;5001034;28;20430;-35
2022/03/24 04:21:16;;;;;;;34.47;21.77;;;;;;;;;;5004506;28;20486;-35
2022/03/24 04:23:42;;;;;;;33.97;20.57;;;;;;;;;;4998741;28;20465;-35
2022/03/24 04:26:10;;;;;;;34.47;19.93;;;;;;;;;;5001939;28;20632;-35
2022/03/24 04:28:37;;;;;;;37.60;21.53;;;;;;;;;;5004564;28;20429;-35
2022/03/24 04:31:03;;;;;;;34.03;20.93;;;;;;;;;;5003400;28;20915;-35
2022/03/24 04:33:30;;;;;;;35.97;21.60;;;;;;;;;;5000488;28;20543;-35
2022/03/24 04:35:58;;;;;;;35.00;21.43;;;;;;;;;;5002248;28;20422;-35
2022/03/24 04:38:24;;;;;;;35.77;21.03;;;;;;;;;;5005051;28;20430;-35
2022/03/24 04:40:50;;;;;;;31.73;19.37;;;;;;;;;;5006263;28;21092;-35
2022/03/24 04:43:16;;;;;;;33.33;18.77;;;;;;;;;;5001927;28;20806;-35
2022/03/24 04:45:43;;;;;;;37.17;20.43;;;;;;;;;;4999569;28;20422;-35
2022/03/24 04:48:10;;;;;;;31.20;19.70;;;;;;;;;;5001512;28;20431;-35
2022/03/24 04:50:36;;;;;;;32.33;20.17;;;;;;;;;;5004097;28;20521;-35
2022/03/24 04:53:02;;;;;;;35.43;20.43;;;;;;;;;;5002263;28;21321;-35
2022/03/24 04:55:29;;;;;;;32.90;19.77;;;;;;;;;;4986311;28;21026;-35
2022/03/24 04:57:55;;;;;;;34.97;19.77;;;;;;;;;;5006883;28;20411;-35
2022/03/24 05:00:21;;;;;;;32.97;19.73;;;;;;;;;;5006753;28;20484;-35
2022/03/24 05:02:47;;;;;;;35.20;20.80;;;;;;;;;;5004611;28;20926;-35
2022/03/24 05:05:15;;;;;;;37.43;20.90;;;;;;;;;;5001339;28;20426;-35
2022/03/24 05:07:41;;;;;;;32.57;19.63;;;;;;;;;;4980411;28;20751;-35
2022/03/24 05:10:08;;;;;;;35.43;20.90;;;;;;;;;;5004569;28;21279;-35
2022/03/24 05:12:34;;;;;;;38.73;20.50;;;;;;;;;;4999934;28;20726;-35
2022/03/24 05:15:00;;;;;;;33.50;19.77;;;;;;;;;;5000443;28;20431;-35
2022/03/24 05:17:26;;;;;;;33.07;19.67;;;;;;;;;;5002495;28;20669;-35
2022/03/24 05:19:52;;;;;;;34.37;19.17;;;;;;;;;;5001527;28;20446;-35
2022/03/24 05:22:19;;;;;;;36.77;20.13;;;;;;;;;;5000619;28;20807;-35
2022/03/24 05:24:45;;;;;;;37.47;20.00;;;;;;;;;;5005549;28;20799;-35
2022/03/24 05:27:11;;;;;;;32.60;19.63;;;;;;;;;;5005793;28;20772;-35
2022/03/24 05:29:37;;;;;;;34.30;19.37;;;;;;;;;;4998284;28;20948;-35
2022/03/24 05:32:04;;;;;;;33.17;19.27;;;;;;;;;;5000489;28;20882;-35
2022/03/24 05:34:31;;;;;;;38.80;19.27;;;;;;;;;;5005045;28;21253;-35
2022/03/24 05:36:57;;;;;;;36.13;19.13;;;;;;;;;;5000812;28;20866;-36
2022/03/24 05:39:23;;;;;;;33.60;19.00;;;;;;;;;;5000187;28;20430;-35
2022/03/24 05:41:50;;;;;;;32.00;18.03;;;;;;;;;;5002484;28;21172;-35
2022/03/24 05:44:16;;;;;;;33.17;18.53;;;;;;;;;;5004655;28;20422;-35
2022/03/24 05:46:44;;;;;;;36.90;19.00;;;;;;;;;;5005270;28;20749;-35
2022/03/24 05:49:18;;;;;;;36.97;20.13;;;;;;;;;;5002183;28;20417;-35
2022/03/24 05:51:44;;;;;;;36.40;20.83;;;;;;;;;;5003489;28;20529;-35
2022/03/24 05:54:12;;;;;;;39.77;20.60;;;;;;;;;;5004974;28;20433;-35
2022/03/24 05:56:38;;;;;;;36.13;20.30;;;;;;;;;;5005515;28;20419;-35
2022/03/24 05:59:04;;;;;;;35.97;19.50;;;;;;;;;;5007805;28;20423;-35
2022/03/24 06:01:30;;;;;;;43.33;21.80;;;;;;;;;;5004196;28;20646;-35
2022/03/24 06:03:59;;;;;;;51.87;23.60;;;;;;;;;;4984396;28;20812;-35
2022/03/24 06:06:26;;;;;;;46.10;23.50;;;;;;;;;;5002765;28;20418;-35
2022/03/24 06:08:53;;;;;;;49.43;24.27;;;;;;;;;;5004030;28;20837;-35
2022/03/24 06:11:20;;;;;;;48.10;23.97;;;;;;;;;;5004242;28;20423;-35
2022/03/24 06:13:46;;;;;;;39.17;21.83;;;;;;;;;;5004393;28;20694;-35
2022/03/24 06:16:15;;;;;;;39.57;22.67;;;;;;;;;;4982975;28;20851;-35
2022/03/24 06:18:42;;;;;;;40.97;22.13;;;;;;;;;;5003527;28;20886;-35
2022/03/24 06:21:08;;;;;;;40.30;21.10;;;;;;;;;;4981801;28;20454;-35
2022/03/24 06:23:35;;;;;;;37.97;19.80;;;;;;;;;;5008526;28;20517;-35
2022/03/24 06:26:01;;;;;;;37.93;19.97;;;;;;;;;;5007647;28;20721;-35
2022/03/24 06:28:28;;;;;;;39.17;19.37;;;;;;;;;;4999675;28;20430;-35
2022/03/24 06:30:54;;;;;;;34.33;19.03;;;;;;;;;;5000169;28;20891;-35
2022/03/24 06:33:20;;;;;;;34.67;17.97;;;;;;;;;;4998959;28;20472;-35
2022/03/24 06:35:48;;;;;;;30.23;16.97;;;;;;;;;;5011622;28;20458;-36
2022/03/24 06:38:14;;;;;;;26.93;16.90;;;;;;;;;;5004329;28;20426;-36
2022/03/24 06:40:41;;;;;;;31.77;16.93;;;;;;;;;;5005971;28;20534;-36
2022/03/24 06:43:07;;;;;;;37.00;17.73;;;;;;;;;;5006251;28;20865;-36
2022/03/24 06:45:34;;;;;;;33.07;16.43;;;;;;;;;;5005145;28;20426;-36
2022/03/24 06:48:00;;;;;;;39.40;17.13;;;;;;;;;;5003034;28;20426;-36
2022/03/24 06:50:27;;;;;;;34.43;17.07;;;;;;;;;;5010152;28;20428;-36
2022/03/24 06:52:53;;;;;;;33.53;16.70;;;;;;;;;;5007500;28;20741;-36
2022/03/24 06:55:19;;;;;;;31.40;16.10;;;;;;;;;;5010353;28;20753;-36
2022/03/24 06:57:45;;;;;;;29.13;15.93;;;;;;;;;;5005392;28;20413;-36
2022/03/24 07:00:12;;;;;;;33.53;16.80;;;;;;;;;;5011263;28;20528;-36
2022/03/24 07:02:38;;;;;;;27.30;15.10;;;;;;;;;;5005078;28;20453;-36
2022/03/24 07:05:04;;;;;;;32.13;17.60;;;;;;;;;;5003703;28;20465;-36
2022/03/24 07:07:30;;;;;;;34.03;15.93;;;;;;;;;;5004420;28;20864;-36
2022/03/24 07:09:57;;;;;;;29.33;15.90;;;;;;;;;;5007400;28;20697;-36
2022/03/24 07:12:23;;;;;;;28.90;15.47;;;;;;;;;;5006009;28;20928;-36
2022/03/24 07:14:49;;;;;;;36.10;15.43;;;;;;;;;;5006228;28;20844;-36
2022/03/24 07:17:17;;;;;;;29.20;15.37;;;;;;;;;;5008540;28;20734;-36
2022/03/24 07:19:43;;;;;;;29.33;15.47;;;;;;;;;;4981605;28;20411;-36
2022/03/24 07:22:09;;;;;;;30.60;15.33;;;;;;;;;;5006491;28;20582;-36
2022/03/24 07:24:35;;;;;;;29.93;15.57;;;;;;;;;;5008441;28;20406;-36
2022/03/24 07:27:02;;;;;;;27.50;14.93;;;;;;;;;;5004623;28;20425;-36
2022/03/24 07:29:28;;;;;;;29.73;15.13;;;;;;;;;;5006605;28;20415;-37
2022/03/24 07:31:55;;;;;;;35.87;15.23;;;;;;;;;;5006185;28;20434;-36
2022/03/24 07:34:21;;;;;;;25.97;15.47;;;;;;;;;;5004107;28;20426;-37
2022/03/24 07:36:47;;;;;;;24.80;15.33;;;;;;;;;;5005577;28;20791;-36
2022/03/24 07:39:14;;;;;;;24.93;14.73;;;;;;;;;;5004912;28;20176;-37
2022/03/24 07:41:40;;;;;;;24.33;14.80;;;;;;;;;;5006666;28;20437;-36
2022/03/24 07:44:06;;;;;;;32.27;15.67;;;;;;;;;;5009299;28;20171;-37
2022/03/24 07:46:33;;;;;;;34.27;16.33;;;;;;;;;;5005840;28;20456;-37
2022/03/24 07:48:59;;;;;;;27.17;15.13;;;;;;;;;;5002326;28;20168;-37
2022/03/24 07:51:26;;;;;;;25.97;15.60;;;;;;;;;;5001781;28;20566;-37
2022/03/24 07:53:54;;;;;;;27.63;15.17;;;;;;;;;;5005836;28;20662;-37
2022/03/24 07:56:21;;;;;;;31.03;17.00;;;;;;;;;;5005004;28;20184;-37
2022/03/24 07:58:47;;;;;;;25.73;15.77;;;;;;;;;;5005770;28;20816;-37
2022/03/24 08:01:14;;;;;;;30.63;15.57;;;;;;;;;;5002605;28;20446;-37
2022/03/24 08:03:42;;;;;;;23.03;14.97;;;;;;;;;;5006838;28;20524;-37
2022/03/24 08:06:08;;;;;;;25.90;14.53;;;;;;;;;;5005906;28;20195;-38
2022/03/24 08:08:34;;;;;;;30.00;15.93;;;;;;;;;;5003858;28;20164;-37
2022/03/24 08:11:00;;;;;;;27.10;15.90;;;;;;;;;;5002483;28;20623;-38
2022/03/24 08:13:26;;;;;;;23.23;16.13;;;;;;;;;;5008137;28;20701;-37
2022/03/24 08:15:54;;;;;;;27.10;16.20;;;;;;;;;;5005251;28;20176;-37
2022/03/24 08:18:20;;;;;;;29.10;17.87;;;;;;;;;;5002736;28;20168;-37
2022/03/24 08:20:51;;;;;;;25.50;17.13;;;;;;;;;;5003607;28;20193;-37
2022/03/24 08:23:17;;;;;;;26.53;17.90;;;;;;;;;;5005798;28;20411;-37
2022/03/24 08:25:44;;;;;;;31.07;17.93;;;;;;;;;;5004152;28;20164;-38
2022/03/24 08:28:10;;;;;;;27.03;17.87;;;;;;;;;;5001781;28;20206;-38
2022/03/24 08:30:37;;;;;;;23.47;17.57;;;;;;;;;;5003193;28;20188;-38
2022/03/24 08:33:03;;;;;;;27.70;17.40;;;;;;;;;;5005704;28;20172;-38
2022/03/24 08:35:29;;;;;;;25.33;18.03;;;;;;;;;;5005410;28;20172;-38
2022/03/24 08:37:55;;;;;;;23.43;17.07;;;;;;;;;;4985488;28;20176;-38
2022/03/24 08:40:22;;;;;;;26.33;16.83;;;;;;;;;;5006436;28;20528;-37
2022/03/24 08:42:48;;;;;;;23.87;16.57;;;;;;;;;;5006555;28;20892;-38
2022/03/24 08:45:15;;;;;;;22.70;16.43;;;;;;;;;;4986201;28;20176;-38
2022/03/24 08:47:42;;;;;;;28.77;18.67;;;;;;;;;;4986759;28;20300;-38
2022/03/24 08:50:08;;;;;;;26.63;17.33;;;;;;;;;;5002421;28;20168;-38
2022/03/24 08:52:35;;;;;;;27.73;18.10;;;;;;;;;;4985334;28;20180;-38
2022/03/24 08:55:02;;;;;;;24.53;18.07;;;;;;;;;;5005342;28;20180;-37
2022/03/24 08:57:28;;;;;;;24.23;18.83;;;;;;;;;;5002990;28;20188;-37
2022/03/24 09:00:00;;;;;;;28.83;18.33;;;;;;;;;;5000364;28;20826;-38
2022/03/24 09:02:26;;;;;;;28.13;19.40;;;;;;;;;;5003102;28;20265;-38
2022/03/24 09:04:52;;;;;;;28.83;19.77;;;;;;;;;;5002453;28;20292;-38
2022/03/24 09:07:18;;;;;;;29.30;20.30;;;;;;;;;;5002885;28;20710;-38
2022/03/24 09:09:45;;;;;;;27.03;19.13;;;;;;;;;;5001063;28;20626;-38
2022/03/24 09:12:12;;;;;;;25.40;18.60;;;;;;;;;;5004523;28;20877;-37
2022/03/24 09:14:39;;;;;;;28.50;17.80;;;;;;;;;;5001398;28;20599;-38
2022/03/24 09:17:06;;;;;;;24.83;18.97;;;;;;;;;;5004343;28;20609;-38
2022/03/24 09:19:33;;;;;;;23.40;18.03;;;;;;;;;;5007710;28;20433;-38
2022/03/24 09:21:59;;;;;;;22.00;17.50;;;;;;;;;;5007615;28;20523;-38
2022/03/24 09:24:26;;;;;;;28.33;18.63;;;;;;;;;;5008448;28;20631;-38
2022/03/24 09:26:52;;;;;;;21.63;17.27;;;;;;;;;;5005569;28;20633;-38
2022/03/24 09:29:18;;;;;;;27.10;19.33;;;;;;;;;;5009337;28;20187;-38
2022/03/24 09:31:45;;;;;;;29.33;18.73;;;;;;;;;;5010499;28;20188;-38
2022/03/24 09:34:11;;;;;;;42.70;21.23;;;;;;;;;;5010554;28;20321;-38
2022/03/24 09:36:37;;;;;;;26.70;20.13;;;;;;;;;;5005988;28;20277;-38
2022/03/24 09:39:04;;;;;;;27.77;19.17;;;;;;;;;;5008509;28;20199;-38
2022/03/24 09:41:30;;;;;;;21.37;18.00;;;;;;;;;;5012498;28;20899;-40
2022/03/24 09:43:58;;;;;;;30.77;20.83;;;;;;;;;;4990455;28;20174;-37
2022/03/24 09:46:26;;;;;;;28.60;20.87;;;;;;;;;;5007268;28;21091;-38
2022/03/24 09:48:52;;;;;;;28.37;21.00;;;;;;;;;;5006804;28;20567;-38
2022/03/24 09:51:19;;;;;;;31.80;21.17;;;;;;;;;;5009908;28;20181;-37
2022/03/24 09:53:45;;;;;;;29.57;22.43;;;;;;;;;;5009729;28;20177;-38
2022/03/24 09:56:11;;;;;;;29.60;21.50;;;;;;;;;;5007609;28;20580;-38
2022/03/24 09:58:37;;;;;;;29.73;21.33;;;;;;;;;;5008955;28;20168;-38
2022/03/24 10:01:03;;;;;;;26.50;20.40;;;;;;;;;;5006124;28;20565;-37
2022/03/24 10:03:30;;;;;;;28.20;20.37;;;;;;;;;;5007538;28;20371;-37
2022/03/24 10:06:07;;;;;;;29.57;21.40;;;;;;;;;;4984886;28;20981;-37
2022/03/24 10:08:34;;;;;;;25.73;20.57;;;;;;;;;;5008990;28;20274;-37
2022/03/24 10:11:02;;;;;;;26.23;21.50;;;;;;;;;;5006017;28;20302;-38
2022/03/24 10:13:44;;;;;;;25.33;20.93;;;;;;;;;;4984529;28;20180;-38
2022/03/24 10:16:11;;;;;;;25.67;20.07;;;;;;;;;;5006881;28;20175;-38
2022/03/24 10:18:37;;;;;;;29.90;20.63;;;;;;;;;;5003922;28;20720;-38
2022/03/24 10:21:04;;;;;;;25.53;20.20;;;;;;;;;;5010943;28;21107;-38
2022/03/24 10:23:33;;;;;;;29.00;20.13;;;;;;;;;;5008461;28;20168;-38
2022/03/24 10:26:05;;;;;;;26.20;20.37;;;;;;;;;;5003591;28;20198;-38
2022/03/24 10:28:32;;;;;;;24.77;20.43;;;;;;;;;;5007687;28;20246;-38
2022/03/24 10:30:59;;;;;;;26.97;19.67;;;;;;;;;;5008742;28;21102;-38
2022/03/24 10:33:30;;;;;;;30.67;20.83;;;;;;;;;;5005790;28;20183;-37
2022/03/24 10:36:08;;;;;;;22.90;19.87;;;;;;;;;;5004693;28;20381;-38
2022/03/24 10:38:37;;;;;;;29.63;20.27;;;;;;;;;;5009435;28;20192;-38
2022/03/24 10:41:13;;;;;;;24.47;20.43;;;;;;;;;;5005684;28;20739;-38
2022/03/24 10:43:39;;;;;;;26.60;21.00;;;;;;;;;;5006229;28;20572;-37
2022/03/24 10:46:18;;;;;;;27.93;21.27;;;;;;;;;;5004820;28;20176;-37
2022/03/24 10:48:45;;;;;;;24.83;20.77;;;;;;;;;;5009179;28;20895;-37
2022/03/24 10:51:11;;;;;;;27.33;21.27;;;;;;;;;;5004381;28;20550;-37
2022/03/24 10:53:41;;;;;;;25.63;20.97;;;;;;;;;;5005606;28;20701;-37
2022/03/24 10:56:12;;;;;;;30.03;20.17;;;;;;;;;;5006633;28;20731;-37
2022/03/24 10:58:42;;;;;;;27.60;22.17;;;;;;;;;;5006589;28;20706;-37
2022/03/24 11:01:16;;;;;;;29.47;21.33;;;;;;;;;;5004749;28;20300;-37
2022/03/24 11:03:44;;;;;;;27.53;21.30;;;;;;;;;;5006859;28;20473;-37
2022/03/24 11:06:17;;;;;;;27.20;21.77;;;;;;;;;;5008637;28;20542;-37
2022/03/24 11:08:44;;;;;;;30.23;20.93;;;;;;;;;;5000417;28;20176;-37
2022/03/24 11:11:16;;;;;;;29.50;21.13;;;;;;;;;;5005145;28;20375;-37
2022/03/24 11:13:56;;;;;;;28.27;22.27;;;;;;;;;;5007596;28;20179;-37
2022/03/24 11:16:24;;;;;;;28.63;20.27;;;;;;;;;;5006286;28;20176;-36
2022/03/24 11:18:50;;;;;;;26.63;21.33;;;;;;;;;;5006861;28;20218;-37
2022/03/24 11:21:22;;;;;;;27.63;21.00;;;;;;;;;;5004985;28;20755;-37
2022/03/24 11:23:50;;;;;;;28.63;21.40;;;;;;;;;;5007438;28;20679;-37
2022/03/24 11:26:16;;;;;;;29.57;21.70;;;;;;;;;;5003122;28;20242;-37
2022/03/24 11:28:46;;;;;;;24.90;21.03;;;;;;;;;;5007760;28;20600;-36
2022/03/24 11:31:14;;;;;;;28.37;21.90;;;;;;;;;;5006745;28;20223;-37
2022/03/24 11:33:40;;;;;;;24.40;20.80;;;;;;;;;;5004140;28;20364;-37
2022/03/24 11:36:07;;;;;;;26.97;20.37;;;;;;;;;;5004180;28;20172;-37
2022/03/24 11:38:33;;;;;;;26.77;19.80;;;;;;;;;;5008931;28;20192;-36
2022/03/24 11:41:05;;;;;;;27.90;21.97;;;;;;;;;;5004005;28;20558;-37
2022/03/24 11:43:32;;;;;;;24.53;20.83;;;;;;;;;;5004943;28;20407;-36
2022/03/24 11:45:59;;;;;;;24.70;21.23;;;;;;;;;;5006776;28;20518;-37
2022/03/24 11:48:51;;;;;;;24.40;20.47;;;;;;;;;;5003967;28;20685;-37
2022/03/24 11:51:18;;;;;;;26.50;20.67;;;;;;;;;;5002341;28;20493;-37
2022/03/24 11:53:45;;;;;;;25.50;20.17;;;;;;;;;;4999514;28;20188;-37
2022/03/24 11:56:12;;;;;;;24.40;21.00;;;;;;;;;;5004744;28;20805;-37
2022/03/24 11:58:53;;;;;;;26.33;19.93;;;;;;;;;;5004447;28;20782;-37
2022/03/24 12:01:19;;;;;;;23.33;20.23;;;;;;;;;;5003886;28;20277;-37
2022/03/24 12:03:50;;;;;;;25.57;20.40;;;;;;;;;;4990527;28;20581;-37
2022/03/24 12:06:17;;;;;;;23.97;19.80;;;;;;;;;;5004256;28;20172;-37
2022/03/24 12:08:47;;;;;;;23.37;20.73;;;;;;;;;;5003820;28;20874;-37
2022/03/24 12:11:43;;;;;;;26.60;21.20;;;;;;;;;;4999706;28;20180;-37
2022/03/24 12:14:11;;;;;;;26.67;21.43;;;;;;;;;;4985386;28;20284;-37
2022/03/24 12:16:38;;;;;;;27.20;22.07;;;;;;;;;;5001994;28;20211;-37
2022/03/24 12:19:05;;;;;;;29.70;22.37;;;;;;;;;;5003405;28;20361;-37
2022/03/24 12:21:32;;;;;;;28.03;21.43;;;;;;;;;;5005422;28;20583;-37
2022/03/24 12:24:09;;;;;;;26.93;21.30;;;;;;;;;;5007400;28;20261;-37
2022/03/24 12:26:49;;;;;;;25.57;21.27;;;;;;;;;;5003314;28;20292;-37
2022/03/24 12:29:16;;;;;;;25.93;20.53;;;;;;;;;;5003105;28;20171;-37
2022/03/24 12:31:56;;;;;;;25.30;20.37;;;;;;;;;;4985494;28;20537;-37
2022/03/24 12:34:22;;;;;;;23.53;20.80;;;;;;;;;;4986847;28;20283;-37
2022/03/24 12:36:48;;;;;;;25.83;21.57;;;;;;;;;;5003248;28;20611;-37
2022/03/24 12:39:30;;;;;;;28.90;21.57;;;;;;;;;;5000091;28;20187;-37
2022/03/24 12:42:08;;;;;;;27.27;22.13;;;;;;;;;;5003694;28;20698;-37
2022/03/24 12:44:49;;;;;;;27.07;22.27;;;;;;;;;;5006214;28;20173;-37
2022/03/24 12:47:36;;;;;;;26.60;20.97;;;;;;;;;;5005351;28;20216;-37
2022/03/24 12:50:31;;;;;;;27.30;21.87;;;;;;;;;;5000190;28;20774;-37
2022/03/24 12:52:58;;;;;;;25.67;22.33;;;;;;;;;;4959808;28;20735;-37
2022/03/24 12:55:31;;;;;;;26.57;21.80;;;;;;;;;;5003115;28;20207;-37
2022/03/24 12:57:58;;;;;;;24.90;20.50;;;;;;;;;;5000194;28;20176;-37
2022/03/24 13:00:27;;;;;;;26.23;20.10;;;;;;;;;;5004950;28;20467;-37
2022/03/24 13:02:56;;;;;;;25.30;18.80;;;;;;;;;;5001625;28;20302;-37
2022/03/24 13:05:24;;;;;;;27.63;19.90;;;;;;;;;;5000039;28;20447;-38
2022/03/24 13:07:52;;;;;;;24.40;19.97;;;;;;;;;;5001486;28;20176;-37
2022/03/24 13:10:18;;;;;;;25.80;20.90;;;;;;;;;;5003261;28;20336;-37
2022/03/24 13:12:46;;;;;;;23.50;18.60;;;;;;;;;;5001014;28;20445;-37
2022/03/24 13:15:20;;;;;;;22.97;19.43;;;;;;;;;;5001532;28;21013;-37
2022/03/24 13:17:53;;;;;;;24.40;19.10;;;;;;;;;;5000183;28;20188;-37
2022/03/24 13:20:20;;;;;;;20.80;18.40;;;;;;;;;;5003817;28;20913;-37
2022/03/24 13:22:48;;;;;;;21.73;18.80;;;;;;;;;;5000336;28;20199;-37
2022/03/24 13:25:15;;;;;;;22.33;17.87;;;;;;;;;;5001446;28;20211;-38
2022/03/24 13:27:43;;;;;;;21.60;18.37;;;;;;;;;;5002129;28;20267;-37
2022/03/24 13:30:11;;;;;;;21.03;18.83;;;;;;;;;;5003583;28;20211;-38
2022/03/24 13:32:37;;;;;;;20.03;17.30;;;;;;;;;;5000919;28;20625;-38
2022/03/24 13:35:05;;;;;;;22.77;17.53;;;;;;;;;;4998325;28;20218;-38
2022/03/24 13:37:41;;;;;;;21.07;16.37;;;;;;;;;;5001936;28;22009;-38
2022/03/24 13:40:09;;;;;;;21.07;16.50;;;;;;;;;;5001093;28;20646;-37
2022/03/24 13:42:35;;;;;;;19.20;17.07;;;;;;;;;;4999490;28;20475;-38
2022/03/24 13:45:02;;;;;;;20.03;17.13;;;;;;;;;;5001397;28;20184;-38
2022/03/24 13:47:29;;;;;;;19.87;17.60;;;;;;;;;;5000361;28;20191;-37
2022/03/24 13:49:59;;;;;;;19.80;17.77;;;;;;;;;;4999198;28;20173;-37
2022/03/24 13:52:31;;;;;;;22.33;18.43;;;;;;;;;;5000177;28;20176;-37
2022/03/24 13:55:05;;;;;;;22.03;17.90;;;;;;;;;;5002439;28;20180;-37
2022/03/24 13:57:31;;;;;;;21.70;16.80;;;;;;;;;;5000386;28;20184;-37
2022/03/24 13:59:57;;;;;;;20.57;17.70;;;;;;;;;;5000447;28;20177;-37
2022/03/24 14:02:25;;;;;;;21.87;16.67;;;;;;;;;;4999875;28;20235;-38
2022/03/24 14:05:04;;;;;;;19.63;16.33;;;;;;;;;;5002737;28;20953;-37
2022/03/24 14:07:31;;;;;;;21.07;17.47;;;;;;;;;;5001582;28;20259;-37
2022/03/24 14:09:58;;;;;;;20.70;16.77;;;;;;;;;;5001078;28;20173;-37
2022/03/24 14:12:27;;;;;;;18.63;16.03;;;;;;;;;;5005362;28;20177;-37
2022/03/24 14:14:53;;;;;;;22.20;16.20;;;;;;;;;;5001911;28;20618;-37
2022/03/24 14:17:25;;;;;;;19.33;16.30;;;;;;;;;;5001303;28;20191;-37
2022/03/24 14:19:58;;;;;;;18.50;15.20;;;;;;;;;;5006708;28;20366;-38